Terminal Aerodrome Forecast
Issued by NWS

Home | Current Version | Previous Version | Text Only | Print | Product List | Glossary Off
Versions: 1 2 3 4 5 6 7 8 9 10 11 12 13

000
FTUS43 KEAX 311126
TAFSTJ
TAF
KSTJ 311126Z 3112/0112 16005KT P6SM BKN120
     FM311600 17006KT P6SM VCSH BKN050
     FM311800 18005KT P6SM -SHRA VCTS BKN040CB
     FM010200 30005KT P6SM SCT030 BKN120=

USA.gov is the U.S. government's official web portal to all federal, state and local government web resources and services.